PWSweather.com
Personal Weather Stations
Station Observations
WIKENOS15
47th Ave & 30th St, Kenosha, WI 53144

47th Ave & 30th StKenosha, WI 53144

Lat: 42.612, Lon: -87.866

Elevation: 697

Station Type: Oregon Scientific 100N

Latest ConditionsUpdated 4:15:00 PM CDT Thursday, Apr 24, 2014
Currently Today's Max Today's Min Today's Average
Temperature 51.9°F11.1°C 52.9°F11.6°C 35.2°F1.8°C 42.9°F6.1°C
Dew Point 32.8°F0.4°C 40.1°F4.5°C 27.1°F-2.7°C 34.7°F1.5°C
Winds 5.4 mph SE8.7 kmh SE 9.0 mph SE14.5 kmh SE - 3.0 mph 4.8 kmh
Wind Gusts 9.0 mph14.5 kmh 12.8 mph20.6 kmh - -
Humidity 48% 93% 48% 74%
Pressure 29.80 in1009.1 mb 30.10 in1019.3 mb 29.80 in1009.1 mb -
Precipitation - 0.06 in1.5 mm - -
Hour Temp Dew Point Humidity Winds Wind Gusts Pressure Precip Precip Rate Daily Precip Total
04:15 PM 51.9°F11.1°C 32.8°F0.4°C 48% 5.4 mph SE8.7 kmh SE 9.0 mph14.5 kmh 29.80 in1009.1 mb 0.00 in0.0 mm 0.00 in/hr0.0 mm/hr 0.06 in1.5 mm
04:00 PM 52.7°F11.5°C 34.6°F1.4°C 50% 4.1 mph SE6.6 kmh SE 9.0 mph14.5 kmh 29.80 in1009.1 mb 0.00 in0.0 mm 0.00 in/hr0.0 mm/hr 0.06 in1.5 mm
03:45 PM 51.0°F10.6°C 34.9°F1.6°C 54% 5.7 mph SE9.2 kmh SE 9.0 mph14.5 kmh 29.81 in1009.5 mb 0.00 in0.0 mm 0.00 in/hr0.0 mm/hr 0.06 in1.5 mm
03:30 PM 50.4°F10.2°C 35.3°F1.8°C 56% 4.3 mph SSE6.9 kmh SSE 6.0 mph9.7 kmh 29.82 in1009.8 mb 0.00 in0.0 mm 0.00 in/hr0.0 mm/hr 0.06 in1.5 mm
03:15 PM 49.7°F9.8°C 35.5°F1.9°C 58% 5.3 mph SE8.5 kmh SE 8.2 mph13.2 kmh 29.81 in1009.5 mb 0.00 in0.0 mm 0.00 in/hr0.0 mm/hr 0.06 in1.5 mm
03:00 PM 49.5°F9.7°C 34.9°F1.6°C 57% 4.3 mph SSE6.9 kmh SSE 7.5 mph12.1 kmh 29.82 in1009.8 mb 0.00 in0.0 mm 0.00 in/hr0.0 mm/hr 0.06 in1.5 mm
02:45 PM 50.0°F10.0°C 34.9°F1.6°C 56% 6.5 mph SE10.5 kmh SE 10.5 mph16.9 kmh 29.82 in1009.8 mb 0.00 in0.0 mm 0.00 in/hr0.0 mm/hr 0.06 in1.5 mm
02:30 PM 50.5°F10.3°C 34.5°F1.4°C 54% 6.5 mph SE10.5 kmh SE 9.8 mph15.8 kmh 29.83 in1010.2 mb 0.00 in0.0 mm 0.00 in/hr0.0 mm/hr 0.06 in1.5 mm
02:15 PM 51.2°F10.7°C 35.5°F1.9°C 55% 6.8 mph ESE10.9 kmh ESE 10.5 mph16.9 kmh 29.83 in1010.2 mb 0.00 in0.0 mm 0.00 in/hr0.0 mm/hr 0.06 in1.5 mm
02:00 PM 52.5°F11.4°C 35.4°F1.9°C 52% 7.8 mph ESE12.6 kmh ESE 12.0 mph19.3 kmh 29.84 in1010.5 mb 0.00 in0.0 mm 0.00 in/hr0.0 mm/hr 0.06 in1.5 mm
01:45 PM 52.4°F11.3°C 35.2°F1.8°C 52% 9.0 mph SE14.5 kmh SE 12.0 mph19.3 kmh 29.84 in1010.5 mb 0.00 in0.0 mm 0.00 in/hr0.0 mm/hr 0.06 in1.5 mm
01:30 PM 52.9°F11.6°C 36.2°F2.3°C 53% 7.4 mph ESE11.9 kmh ESE 8.2 mph13.2 kmh 29.86 in1011.2 mb 0.00 in0.0 mm 0.00 in/hr0.0 mm/hr 0.06 in1.5 mm
01:15 PM 51.7°F10.9°C 37.4°F3.0°C 58% 6.1 mph SE9.8 kmh SE 7.5 mph12.1 kmh 29.87 in1011.5 mb 0.00 in0.0 mm 0.00 in/hr0.0 mm/hr 0.06 in1.5 mm
01:00 PM 50.9°F10.5°C 38.4°F3.6°C 62% 5.2 mph ESE8.4 kmh ESE 12.8 mph20.6 kmh 29.89 in1012.2 mb 0.00 in0.0 mm 0.00 in/hr0.0 mm/hr 0.06 in1.5 mm
12:45 PM 49.9°F9.9°C 37.4°F3.0°C 62% 5.3 mph ESE8.5 kmh ESE 9.0 mph14.5 kmh 29.89 in1012.2 mb 0.00 in0.0 mm 0.00 in/hr0.0 mm/hr 0.06 in1.5 mm
12:30 PM 50.8°F10.4°C 38.3°F3.5°C 62% 4.7 mph SE7.6 kmh SE 6.8 mph10.9 kmh 29.90 in1012.5 mb 0.00 in0.0 mm 0.00 in/hr0.0 mm/hr 0.06 in1.5 mm
12:15 PM 51.0°F10.6°C 39.6°F4.2°C 65% 5.0 mph ESE8.0 kmh ESE 8.2 mph13.2 kmh 29.91 in1012.9 mb 0.00 in0.0 mm 0.00 in/hr0.0 mm/hr 0.06 in1.5 mm
12:00 PM 51.9°F11.1°C 40.1°F4.5°C 64% 5.0 mph ESE8.0 kmh ESE 6.8 mph10.9 kmh 29.93 in1013.5 mb 0.00 in0.0 mm 0.00 in/hr0.0 mm/hr 0.06 in1.5 mm
11:45 AM 50.1°F10.1°C 39.6°F4.2°C 67% 5.2 mph SE8.4 kmh SE 9.0 mph14.5 kmh 29.93 in1013.5 mb 0.00 in0.0 mm 0.00 in/hr0.0 mm/hr 0.06 in1.5 mm
11:30 AM 47.8°F8.8°C 38.5°F3.6°C 70% 4.5 mph E7.2 kmh E 9.0 mph14.5 kmh 29.93 in1013.5 mb 0.00 in0.0 mm 0.00 in/hr0.0 mm/hr 0.06 in1.5 mm
11:15 AM 47.9°F8.8°C 38.2°F3.4°C 69% 6.0 mph SE9.7 kmh SE 8.2 mph13.2 kmh 29.93 in1013.5 mb 0.00 in0.0 mm 0.00 in/hr0.0 mm/hr 0.06 in1.5 mm
11:00 AM 48.3°F9.1°C 37.8°F3.2°C 67% 5.5 mph SE8.9 kmh SE 8.2 mph13.2 kmh 29.95 in1014.2 mb 0.00 in0.0 mm 0.00 in/hr0.0 mm/hr 0.06 in1.5 mm
10:45 AM 49.3°F9.6°C 38.0°F3.3°C 65% 6.6 mph ESE10.6 kmh ESE 8.2 mph13.2 kmh 29.96 in1014.6 mb 0.00 in0.0 mm 0.00 in/hr0.0 mm/hr 0.06 in1.5 mm
10:30 AM 48.2°F9.0°C 38.1°F3.4°C 68% 6.1 mph SE9.8 kmh SE 9.0 mph14.5 kmh 29.96 in1014.6 mb 0.00 in0.0 mm 0.00 in/hr0.0 mm/hr 0.06 in1.5 mm
10:15 AM 47.4°F8.6°C 37.7°F3.2°C 69% 6.7 mph ESE10.8 kmh ESE 10.5 mph16.9 kmh 29.96 in1014.6 mb 0.00 in0.0 mm 0.00 in/hr0.0 mm/hr 0.06 in1.5 mm
10:00 AM 46.3°F7.9°C 37.0°F2.8°C 70% 6.1 mph SE9.8 kmh SE 9.8 mph15.8 kmh 29.96 in1014.6 mb 0.00 in0.0 mm 0.00 in/hr0.0 mm/hr 0.06 in1.5 mm
09:45 AM 45.7°F7.6°C 36.8°F2.7°C 71% 4.7 mph SE7.6 kmh SE 7.5 mph12.1 kmh 29.96 in1014.6 mb 0.00 in0.0 mm 0.00 in/hr0.0 mm/hr 0.06 in1.5 mm
09:30 AM 45.2°F7.3°C 36.4°F2.4°C 71% 5.5 mph SE8.9 kmh SE 9.0 mph14.5 kmh 29.97 in1014.9 mb 0.00 in0.0 mm 0.00 in/hr0.0 mm/hr 0.06 in1.5 mm
09:15 AM 44.7°F7.1°C 36.2°F2.3°C 72% 4.6 mph SE7.4 kmh SE 9.0 mph14.5 kmh 29.98 in1015.2 mb 0.00 in0.0 mm 0.00 in/hr0.0 mm/hr 0.06 in1.5 mm
09:00 AM 43.5°F6.4°C 36.8°F2.7°C 77% 3.1 mph ESE5.0 kmh ESE 6.0 mph9.7 kmh 29.98 in1015.2 mb 0.00 in0.0 mm 0.00 in/hr0.0 mm/hr 0.06 in1.5 mm
08:45 AM 42.6°F5.9°C 36.5°F2.5°C 79% 3.3 mph E5.3 kmh E 6.8 mph10.9 kmh 29.99 in1015.6 mb 0.00 in0.0 mm 0.00 in/hr0.0 mm/hr 0.06 in1.5 mm
08:30 AM 42.0°F5.6°C 36.3°F2.4°C 80% 2.5 mph E4.0 kmh E 4.5 mph7.2 kmh 30.00 in1015.9 mb 0.00 in0.0 mm 0.00 in/hr0.0 mm/hr 0.06 in1.5 mm
08:15 AM 41.2°F5.1°C 35.8°F2.1°C 81% 3.1 mph ENE5.0 kmh ENE 6.0 mph9.7 kmh 30.01 in1016.3 mb 0.00 in0.0 mm 0.00 in/hr0.0 mm/hr 0.06 in1.5 mm
08:00 AM 40.9°F4.9°C 35.2°F1.8°C 80% 2.7 mph E4.3 kmh E 3.0 mph4.8 kmh 30.00 in1015.9 mb 0.00 in0.0 mm 0.00 in/hr0.0 mm/hr 0.06 in1.5 mm
07:45 AM 40.3°F4.6°C 34.9°F1.6°C 81% 1.9 mph E3.1 kmh E 3.0 mph4.8 kmh 30.01 in1016.3 mb 0.00 in0.0 mm 0.00 in/hr0.0 mm/hr 0.06 in1.5 mm
07:30 AM 39.8°F4.3°C 34.4°F1.3°C 81% 2.7 mph E4.3 kmh E 5.2 mph8.4 kmh 30.02 in1016.6 mb 0.00 in0.0 mm 0.00 in/hr0.0 mm/hr 0.06 in1.5 mm
07:15 AM 39.4°F4.1°C 33.7°F0.9°C 80% 2.5 mph E4.0 kmh E 4.5 mph7.2 kmh 30.02 in1016.6 mb 0.00 in0.0 mm 0.00 in/hr0.0 mm/hr 0.06 in1.5 mm
07:00 AM 38.9°F3.8°C 33.6°F0.9°C 81% 2.1 mph E3.4 kmh E 6.0 mph9.7 kmh 30.02 in1016.6 mb 0.00 in0.0 mm 0.00 in/hr0.0 mm/hr 0.06 in1.5 mm
06:45 AM 38.7°F3.7°C 33.7°F0.9°C 82% 2.1 mph E3.4 kmh E 3.0 mph4.8 kmh 30.02 in1016.6 mb 0.00 in0.0 mm 0.00 in/hr0.0 mm/hr 0.06 in1.5 mm
06:30 AM 38.7°F3.7°C 34.3°F1.3°C 84% 1.2 mph E1.9 kmh E 1.5 mph2.4 kmh 30.04 in1017.3 mb 0.00 in0.0 mm 0.00 in/hr0.0 mm/hr 0.06 in1.5 mm
06:15 AM 38.6°F3.7°C 34.5°F1.4°C 85% 0.4 mph E0.6 kmh E 2.3 mph3.7 kmh 30.03 in1016.9 mb 0.01 in0.3 mm 0.04 in/hr1.0 mm/hr 0.06 in1.5 mm
06:00 AM 38.4°F3.6°C 34.9°F1.6°C 87% 0.4 mph ESE0.6 kmh ESE 1.5 mph2.4 kmh 30.04 in1017.3 mb 0.00 in0.0 mm 0.00 in/hr0.0 mm/hr 0.05 in1.3 mm
05:45 AM 37.3°F2.9°C 35.2°F1.8°C 92% 0.7 mph E1.1 kmh E 1.5 mph2.4 kmh 30.04 in1017.3 mb 0.00 in0.0 mm 0.00 in/hr0.0 mm/hr 0.05 in1.3 mm
05:30 AM 36.9°F2.7°C 35.1°F1.7°C 93% 0.5 mph ENE0.8 kmh ENE 0.8 mph1.3 kmh 30.04 in1017.3 mb 0.00 in0.0 mm 0.00 in/hr0.0 mm/hr 0.05 in1.3 mm
05:15 AM 36.8°F2.7°C 35.0°F1.7°C 93% Calm Calm -- 30.05 in1017.6 mb 0.00 in0.0 mm 0.00 in/hr0.0 mm/hr 0.05 in1.3 mm
05:00 AM 36.7°F2.6°C 34.6°F1.4°C 92% Calm Calm -- 30.06 in1017.9 mb 0.01 in0.3 mm 0.01 in/hr0.3 mm/hr 0.05 in1.3 mm
04:45 AM 36.6°F2.6°C 34.2°F1.2°C 91% 0.9 mph ENE1.4 kmh ENE 2.3 mph3.7 kmh 30.06 in1017.9 mb 0.00 in0.0 mm 0.00 in/hr0.0 mm/hr 0.04 in1.0 mm
04:30 AM 36.5°F2.5°C 34.1°F1.2°C 91% Calm Calm -- 30.07 in1018.3 mb 0.00 in0.0 mm 0.00 in/hr0.0 mm/hr 0.04 in1.0 mm
04:15 AM 36.4°F2.4°C 33.7°F0.9°C 90% Calm Calm -- 30.08 in1018.6 mb 0.00 in0.0 mm 0.00 in/hr0.0 mm/hr 0.04 in1.0 mm
04:00 AM 36.3°F2.4°C 33.6°F0.9°C 90% Calm Calm -- 30.09 in1019.0 mb 0.01 in0.3 mm 0.01 in/hr0.3 mm/hr 0.04 in1.0 mm
03:45 AM 36.3°F2.4°C 33.3°F0.7°C 89% Calm Calm -- 30.09 in1019.0 mb 0.01 in0.3 mm 0.04 in/hr1.0 mm/hr 0.04 in1.0 mm
03:30 AM 36.2°F2.3°C 33.3°F0.7°C 89% 0.9 mph N1.4 kmh N 2.3 mph3.7 kmh 30.09 in1019.0 mb 0.00 in0.0 mm 0.00 in/hr0.0 mm/hr 0.03 in0.8 mm
03:15 AM 36.1°F2.3°C 32.6°F0.3°C 87% Calm Calm -- 30.09 in1019.0 mb 0.00 in0.0 mm 0.00 in/hr0.0 mm/hr 0.03 in0.8 mm
03:00 AM 36.2°F2.3°C 32.7°F0.4°C 87% 0.7 mph NNW1.1 kmh NNW 0.8 mph1.3 kmh 30.10 in1019.3 mb 0.00 in0.0 mm 0.00 in/hr0.0 mm/hr 0.03 in0.8 mm
02:45 AM 36.1°F2.3°C 32.6°F0.3°C 87% 1.3 mph NW2.1 kmh NW 2.3 mph3.7 kmh 30.10 in1019.3 mb 0.01 in0.3 mm 0.04 in/hr1.0 mm/hr 0.03 in0.8 mm
02:30 AM 35.6°F2.0°C 32.4°F0.2°C 88% Calm Calm -- 30.09 in1019.0 mb 0.00 in0.0 mm 0.00 in/hr0.0 mm/hr 0.02 in0.5 mm
02:15 AM 35.6°F2.0°C 32.7°F0.4°C 89% Calm Calm -- 30.09 in1019.0 mb 0.00 in0.0 mm 0.00 in/hr0.0 mm/hr 0.02 in0.5 mm
02:00 AM 35.3°F1.8°C 32.1°F0.1°C 88% Calm Calm -- 30.08 in1018.6 mb 0.01 in0.3 mm 0.01 in/hr0.3 mm/hr 0.02 in0.5 mm
01:45 AM 35.2°F1.8°C 31.5°F-0.3°C 86% Calm Calm -- 30.08 in1018.6 mb 0.00 in0.0 mm 0.00 in/hr0.0 mm/hr 0.01 in0.3 mm
01:30 AM 35.3°F1.8°C 30.7°F-0.7°C 83% Calm Calm -- 30.09 in1019.0 mb 0.00 in0.0 mm 0.00 in/hr0.0 mm/hr 0.01 in0.3 mm
01:15 AM 35.6°F2.0°C 29.4°F-1.4°C 78% 0.3 mph ESE0.5 kmh ESE 0.8 mph1.3 kmh 30.09 in1019.0 mb 0.01 in0.3 mm 0.04 in/hr1.0 mm/hr 0.01 in0.3 mm
01:00 AM 35.9°F2.2°C 29.7°F-1.3°C 78% 0.9 mph SE1.4 kmh SE 1.5 mph2.4 kmh 30.08 in1018.6 mb 0.00 in0.0 mm 0.00 in/hr0.0 mm/hr 0.00 in0.0 mm
12:45 AM 36.1°F2.3°C 29.3°F-1.5°C 76% Calm Calm -- 30.08 in1018.6 mb 0.00 in0.0 mm 0.00 in/hr0.0 mm/hr 0.00 in0.0 mm
12:30 AM 36.5°F2.5°C 28.7°F-1.8°C 73% Calm Calm -- 30.08 in1018.6 mb 0.00 in0.0 mm 0.00 in/hr0.0 mm/hr 0.00 in0.0 mm
12:15 AM 36.8°F2.7°C 28.0°F-2.2°C 70% Calm Calm -- 30.07 in1018.3 mb 0.00 in0.0 mm 0.00 in/hr0.0 mm/hr 0.00 in0.0 mm
12:00 AM 37.0°F2.8°C 27.1°F-2.7°C 67% 0.1 mph NNE0.2 kmh NNE 0.8 mph1.3 kmh 30.07 in1018.3 mb 0.00 in0.0 mm 0.00 in/hr0.0 mm/hr 0.00 in0.0 mm